sensor_id;sensor_type;location;lat;lon;timestamp;pressure;altitude;pressure_sealevel;temperature;humidity
72950;BME280;64868;45.710;9.590;2023-04-30T00:02:11;98808.53;;;17.09;67.01
72950;BME280;64868;45.710;9.590;2023-04-30T00:04:42;98814.44;;;17.14;67.01
72950;BME280;64868;45.710;9.590;2023-04-30T00:07:14;98815.47;;;17.13;67.25
72950;BME280;64868;45.710;9.590;2023-04-30T00:09:47;98823.88;;;17.11;67.55
72950;BME280;64868;45.710;9.590;2023-04-30T00:12:17;98813.56;;;17.13;67.21
72950;BME280;64868;45.710;9.590;2023-04-30T00:14:47;98823.78;;;17.03;67.91
72950;BME280;64868;45.710;9.590;2023-04-30T00:17:20;98803.16;;;16.89;68.63
72950;BME280;64868;45.710;9.590;2023-04-30T00:19:52;98811.59;;;17.06;67.95
72950;BME280;64868;45.710;9.590;2023-04-30T00:22:23;98782.25;;;16.96;67.56
72950;BME280;64868;45.710;9.590;2023-04-30T00:24:55;98808.59;;;16.99;68.28
72950;BME280;64868;45.710;9.590;2023-04-30T00:27:28;98778.00;;;16.84;68.28
72950;BME280;64868;45.710;9.590;2023-04-30T00:30:00;98822.94;;;17.02;68.26
72950;BME280;64868;45.710;9.590;2023-04-30T00:32:33;98810.81;;;16.95;68.48
72950;BME280;64868;45.710;9.590;2023-04-30T00:35:05;98799.56;;;16.89;68.38
72950;BME280;64868;45.710;9.590;2023-04-30T00:37:38;98810.56;;;16.89;67.93
72950;BME280;64868;45.710;9.590;2023-04-30T00:40:12;98813.97;;;16.83;68.75
72950;BME280;64868;45.710;9.590;2023-04-30T00:42:44;98790.75;;;16.85;67.96
72950;BME280;64868;45.710;9.590;2023-04-30T00:45:17;98784.84;;;16.80;67.82
72950;BME280;64868;45.710;9.590;2023-04-30T00:47:50;98780.84;;;16.74;67.58
72950;BME280;64868;45.710;9.590;2023-04-30T00:50:20;98765.41;;;16.64;67.88
72950;BME280;64868;45.710;9.590;2023-04-30T00:52:53;98799.00;;;16.85;68.04
72950;BME280;64868;45.710;9.590;2023-04-30T00:55:24;98790.66;;;16.77;67.70
72950;BME280;64868;45.710;9.590;2023-04-30T00:57:57;98781.72;;;16.75;67.72
72950;BME280;64868;45.710;9.590;2023-04-30T01:00:25;98764.91;;;16.68;68.25
72950;BME280;64868;45.710;9.590;2023-04-30T01:02:58;98788.78;;;16.77;67.95
72950;BME280;64868;45.710;9.590;2023-04-30T01:05:30;98769.91;;;16.83;67.50
72950;BME280;64868;45.710;9.590;2023-04-30T01:08:00;98781.31;;;16.88;67.29
72950;BME280;64868;45.710;9.590;2023-04-30T01:10:31;98786.03;;;16.95;67.80
72950;BME280;64868;45.710;9.590;2023-04-30T01:13:08;98788.22;;;16.92;67.21
72950;BME280;64868;45.710;9.590;2023-04-30T01:15:53;98781.06;;;16.81;66.85
72950;BME280;64868;45.710;9.590;2023-04-30T01:18:35;98797.28;;;16.84;65.91
72950;BME280;64868;45.710;9.590;2023-04-30T01:21:08;98788.78;;;16.77;66.58
72950;BME280;64868;45.710;9.590;2023-04-30T01:29:25;98769.84;;;16.47;66.80
72950;BME280;64868;45.710;9.590;2023-04-30T01:31:58;98776.63;;;16.52;66.62
72950;BME280;64868;45.710;9.590;2023-04-30T01:34:31;98770.88;;;16.46;66.47
72950;BME280;64868;45.710;9.590;2023-04-30T01:42:29;98793.47;;;16.67;66.00
72950;BME280;64868;45.710;9.590;2023-04-30T01:48:05;98744.31;;;16.54;67.08
72950;BME280;64868;45.710;9.590;2023-04-30T01:50:43;98793.78;;;16.64;67.67
72950;BME280;64868;45.710;9.590;2023-04-30T01:53:23;98767.56;;;16.42;68.73
72950;BME280;64868;45.710;9.590;2023-04-30T01:56:00;98778.19;;;16.37;69.14
72950;BME280;64868;45.710;9.590;2023-04-30T01:58:33;98745.44;;;16.16;69.51
72950;BME280;64868;45.710;9.590;2023-04-30T02:01:06;98797.94;;;16.50;69.06
72950;BME280;64868;45.710;9.590;2023-04-30T02:03:39;98752.06;;;16.23;70.00
72950;BME280;64868;45.710;9.590;2023-04-30T02:06:11;98785.72;;;16.35;70.16
72950;BME280;64868;45.710;9.590;2023-04-30T02:08:44;98781.53;;;16.31;70.60
72950;BME280;64868;45.710;9.590;2023-04-30T02:11:17;98782.31;;;16.23;70.79
72950;BME280;64868;45.710;9.590;2023-04-30T02:13:49;98769.91;;;16.19;70.62
72950;BME280;64868;45.710;9.590;2023-04-30T02:16:17;98773.13;;;16.15;71.43
72950;BME280;64868;45.710;9.590;2023-04-30T02:18:47;98763.53;;;16.19;70.78
72950;BME280;64868;45.710;9.590;2023-04-30T02:21:19;98784.59;;;16.28;70.79
72950;BME280;64868;45.710;9.590;2023-04-30T02:23:50;98747.63;;;16.13;70.76
72950;BME280;64868;45.710;9.590;2023-04-30T02:26:22;98770.28;;;16.24;70.74
72950;BME280;64868;45.710;9.590;2023-04-30T02:28:55;98779.81;;;16.30;71.07
72950;BME280;64868;45.710;9.590;2023-04-30T02:31:28;98779.97;;;16.28;71.07
72950;BME280;64868;45.710;9.590;2023-04-30T02:34:00;98785.53;;;16.19;72.11
72950;BME280;64868;45.710;9.590;2023-04-30T02:36:31;98754.06;;;16.03;71.87
72950;BME280;64868;45.710;9.590;2023-04-30T02:39:02;98760.81;;;16.09;71.43
72950;BME280;64868;45.710;9.590;2023-04-30T02:41:32;98762.88;;;16.07;72.22
72950;BME280;64868;45.710;9.590;2023-04-30T02:44:05;98777.69;;;15.96;73.49
72950;BME280;64868;45.710;9.590;2023-04-30T02:46:33;98779.41;;;15.97;73.04
72950;BME280;64868;45.710;9.590;2023-04-30T02:49:03;98769.75;;;15.93;73.32
72950;BME280;64868;45.710;9.590;2023-04-30T02:51:36;98775.50;;;16.00;72.94
72950;BME280;64868;45.710;9.590;2023-04-30T02:54:03;98785.47;;;16.01;73.86
72950;BME280;64868;45.710;9.590;2023-04-30T02:56:36;98786.03;;;16.04;73.50
72950;BME280;64868;45.710;9.590;2023-04-30T02:59:08;98766.69;;;15.96;72.72
72950;BME280;64868;45.710;9.590;2023-04-30T03:01:39;98772.88;;;15.98;72.96
72950;BME280;64868;45.710;9.590;2023-04-30T03:04:11;98770.66;;;15.84;73.87
72950;BME280;64868;45.710;9.590;2023-04-30T03:06:41;98769.25;;;15.80;73.99
72950;BME280;64868;45.710;9.590;2023-04-30T03:09:11;98771.09;;;15.79;74.45
72950;BME280;64868;45.710;9.590;2023-04-30T03:11:44;98779.22;;;15.81;74.35
72950;BME280;64868;45.710;9.590;2023-04-30T03:14:17;98772.13;;;15.78;73.93
72950;BME280;64868;45.710;9.590;2023-04-30T03:16:47;98760.88;;;15.62;74.41
72950;BME280;64868;45.710;9.590;2023-04-30T03:19:17;98758.44;;;15.69;73.98
72950;BME280;64868;45.710;9.590;2023-04-30T03:21:51;98790.66;;;15.76;74.77
72950;BME280;64868;45.710;9.590;2023-04-30T03:24:21;98789.81;;;15.76;74.59
72950;BME280;64868;45.710;9.590;2023-04-30T03:26:53;98777.34;;;15.72;74.32
72950;BME280;64868;45.710;9.590;2023-04-30T03:29:26;98774.75;;;15.70;74.64
72950;BME280;64868;45.710;9.590;2023-04-30T03:31:56;98756.69;;;15.68;74.84
72950;BME280;64868;45.710;9.590;2023-04-30T03:34:29;98777.06;;;15.75;74.37
72950;BME280;64868;45.710;9.590;2023-04-30T03:36:59;98772.38;;;15.85;74.63
72950;BME280;64868;45.710;9.590;2023-04-30T03:39:29;98778.28;;;15.90;74.03
72950;BME280;64868;45.710;9.590;2023-04-30T03:42:02;98777.84;;;15.95;74.16
72950;BME280;64868;45.710;9.590;2023-04-30T03:44:34;98780.25;;;16.08;74.31
72950;BME280;64868;45.710;9.590;2023-04-30T03:47:02;98776.66;;;15.97;74.02
72950;BME280;64868;45.710;9.590;2023-04-30T03:49:32;98780.19;;;15.90;74.30
72950;BME280;64868;45.710;9.590;2023-04-30T03:52:05;98801.88;;;15.93;74.87
72950;BME280;64868;45.710;9.590;2023-04-30T03:54:37;98746.41;;;15.70;74.65
72950;BME280;64868;45.710;9.590;2023-04-30T03:57:10;98759.13;;;15.71;75.50
72950;BME280;64868;45.710;9.590;2023-04-30T03:59:42;98775.59;;;15.80;74.63
72950;BME280;64868;45.710;9.590;2023-04-30T04:02:15;98757.13;;;15.73;74.94
72950;BME280;64868;45.710;9.590;2023-04-30T04:04:46;98771.66;;;15.83;74.64
72950;BME280;64868;45.710;9.590;2023-04-30T04:07:16;98762.44;;;15.74;74.48
72950;BME280;64868;45.710;9.590;2023-04-30T04:09:48;98708.47;;;15.46;74.06
72950;BME280;64868;45.710;9.590;2023-04-30T04:12:21;98773.16;;;15.68;74.69
72950;BME280;64868;45.710;9.590;2023-04-30T04:14:53;98785.16;;;15.76;75.24
72950;BME280;64868;45.710;9.590;2023-04-30T04:17:21;98792.94;;;15.81;75.04
72950;BME280;64868;45.710;9.590;2023-04-30T04:19:54;98812.56;;;15.96;74.77
72950;BME280;64868;45.710;9.590;2023-04-30T04:22:26;98788.31;;;15.81;74.80
72950;BME280;64868;45.710;9.590;2023-04-30T04:24:59;98753.06;;;15.67;74.60
72950;BME280;64868;45.710;9.590;2023-04-30T04:27:27;98787.00;;;15.86;74.89
72950;BME280;64868;45.710;9.590;2023-04-30T04:29:59;98757.97;;;15.73;74.67
72950;BME280;64868;45.710;9.590;2023-04-30T04:32:29;98816.09;;;15.78;75.69
72950;BME280;64868;45.710;9.590;2023-04-30T04:34:59;98819.28;;;15.84;75.49
72950;BME280;64868;45.710;9.590;2023-04-30T04:37:32;98816.00;;;15.70;75.80
72950;BME280;64868;45.710;9.590;2023-04-30T04:40:02;98798.66;;;15.50;76.15
72950;BME280;64868;45.710;9.590;2023-04-30T04:42:29;98821.66;;;15.69;75.74
72950;BME280;64868;45.710;9.590;2023-04-30T04:44:57;98812.22;;;15.62;76.18
72950;BME280;64868;45.710;9.590;2023-04-30T04:47:27;98773.81;;;15.42;75.42
72950;BME280;64868;45.710;9.590;2023-04-30T04:49:59;98789.41;;;15.51;76.06
72950;BME280;64868;45.710;9.590;2023-04-30T04:52:30;98833.06;;;15.74;76.03
72950;BME280;64868;45.710;9.590;2023-04-30T04:55:00;98805.97;;;15.79;74.26
72950;BME280;64868;45.710;9.590;2023-04-30T04:57:30;98777.09;;;15.55;74.67
72950;BME280;64868;45.710;9.590;2023-04-30T04:59:56;98810.75;;;15.77;74.28
72950;BME280;64868;45.710;9.590;2023-04-30T05:02:24;98798.06;;;15.66;74.93
72950;BME280;64868;45.710;9.590;2023-04-30T05:04:57;98829.53;;;15.91;74.67
72950;BME280;64868;45.710;9.590;2023-04-30T05:07:27;98804.78;;;15.91;73.47
72950;BME280;64868;45.710;9.590;2023-04-30T05:09:55;98786.28;;;15.84;73.83
72950;BME280;64868;45.710;9.590;2023-04-30T05:12:27;98805.16;;;15.69;73.23
72950;BME280;64868;45.710;9.590;2023-04-30T05:14:57;98781.88;;;15.53;73.97
72950;BME280;64868;45.710;9.590;2023-04-30T05:17:30;98825.06;;;15.80;74.04
72950;BME280;64868;45.710;9.590;2023-04-30T05:20:02;98808.06;;;15.57;74.35
72950;BME280;64868;45.710;9.590;2023-04-30T05:22:33;98846.72;;;15.93;74.34
72950;BME280;64868;45.710;9.590;2023-04-30T05:25:05;98853.84;;;15.86;73.64
72950;BME280;64868;45.710;9.590;2023-04-30T05:27:38;98801.25;;;15.62;73.62
72950;BME280;64868;45.710;9.590;2023-04-30T05:30:12;98862.13;;;15.76;75.15
72950;BME280;64868;45.710;9.590;2023-04-30T05:32:44;98869.06;;;15.71;74.83
72950;BME280;64868;45.710;9.590;2023-04-30T05:35:19;98866.91;;;15.74;75.40
72950;BME280;64868;45.710;9.590;2023-04-30T05:37:47;98843.63;;;15.69;74.78
72950;BME280;64868;45.710;9.590;2023-04-30T05:40:17;98800.84;;;15.37;75.35
72950;BME280;64868;45.710;9.590;2023-04-30T05:42:45;98857.38;;;15.69;74.88
72950;BME280;64868;45.710;9.590;2023-04-30T05:45:17;98795.06;;;15.40;74.60
72950;BME280;64868;45.710;9.590;2023-04-30T05:47:48;98873.53;;;15.91;74.63
72950;BME280;64868;45.710;9.590;2023-04-30T05:50:18;98856.06;;;15.73;74.25
72950;BME280;64868;45.710;9.590;2023-04-30T05:52:48;98873.88;;;15.69;74.76
72950;BME280;64868;45.710;9.590;2023-04-30T05:55:21;98860.94;;;15.79;74.52
72950;BME280;64868;45.710;9.590;2023-04-30T05:57:51;98868.25;;;15.98;73.94
72950;BME280;64868;45.710;9.590;2023-04-30T06:00:23;98860.28;;;16.04;73.44
72950;BME280;64868;45.710;9.590;2023-04-30T06:02:55;98823.56;;;15.96;73.33
72950;BME280;64868;45.710;9.590;2023-04-30T06:05:20;98859.69;;;16.11;73.50
72950;BME280;64868;45.710;9.590;2023-04-30T06:07:53;98868.16;;;16.27;73.78
72950;BME280;64868;45.710;9.590;2023-04-30T06:10:25;98862.28;;;16.40;72.93
72950;BME280;64868;45.710;9.590;2023-04-30T06:12:55;98802.28;;;15.98;72.41
72950;BME280;64868;45.710;9.590;2023-04-30T06:15:26;98863.28;;;16.48;72.56
72950;BME280;64868;45.710;9.590;2023-04-30T06:17:56;98827.84;;;16.36;72.81
72950;BME280;64868;45.710;9.590;2023-04-30T06:20:26;98840.25;;;16.49;71.24
72950;BME280;64868;45.710;9.590;2023-04-30T06:22:59;98845.91;;;16.48;72.06
72950;BME280;64868;45.710;9.590;2023-04-30T06:25:31;98837.69;;;16.38;72.02
72950;BME280;64868;45.710;9.590;2023-04-30T06:27:59;98836.56;;;16.31;72.41
72950;BME280;64868;45.710;9.590;2023-04-30T06:30:27;98842.44;;;16.46;73.13
72950;BME280;64868;45.710;9.590;2023-04-30T06:33:00;98843.81;;;16.60;71.48
72950;BME280;64868;45.710;9.590;2023-04-30T06:35:32;98827.13;;;16.61;71.16
72950;BME280;64868;45.710;9.590;2023-04-30T06:38:05;98811.25;;;16.73;71.44
72950;BME280;64868;45.710;9.590;2023-04-30T06:40:36;98836.53;;;17.22;68.75
72950;BME280;64868;45.710;9.590;2023-04-30T06:43:08;98875.94;;;17.76;68.45
72950;BME280;64868;45.710;9.590;2023-04-30T06:45:39;98863.25;;;18.17;66.87
72950;BME280;64868;45.710;9.590;2023-04-30T06:48:07;98854.28;;;18.50;65.25
72950;BME280;64868;45.710;9.590;2023-04-30T06:50:40;98831.91;;;18.69;63.63
72950;BME280;64868;45.710;9.590;2023-04-30T06:53:17;98857.56;;;20.10;59.23
72950;BME280;64868;45.710;9.590;2023-04-30T06:55:49;98836.97;;;21.68;54.24
72950;BME280;64868;45.710;9.590;2023-04-30T06:58:22;98851.41;;;26.09;42.48
72950;BME280;64868;45.710;9.590;2023-04-30T07:00:54;98842.19;;;24.53;44.54
72950;BME280;64868;45.710;9.590;2023-04-30T07:03:27;98829.66;;;23.15;47.48
72950;BME280;64868;45.710;9.590;2023-04-30T07:05:57;98825.75;;;23.52;47.52
72950;BME280;64868;45.710;9.590;2023-04-30T07:08:23;98822.22;;;22.86;48.82
72950;BME280;64868;45.710;9.590;2023-04-30T07:10:55;98825.56;;;22.30;49.40
72950;BME280;64868;45.710;9.590;2023-04-30T07:13:25;98828.50;;;21.99;51.46
72950;BME280;64868;45.710;9.590;2023-04-30T07:15:56;98828.22;;;21.56;50.80
72950;BME280;64868;45.710;9.590;2023-04-30T07:18:26;98864.09;;;21.58;52.25
72950;BME280;64868;45.710;9.590;2023-04-30T07:20:53;98834.22;;;21.45;51.61
72950;BME280;64868;45.710;9.590;2023-04-30T07:23:24;98872.22;;;21.82;51.25
72950;BME280;64868;45.710;9.590;2023-04-30T07:25:54;98874.91;;;22.28;50.60
72950;BME280;64868;45.710;9.590;2023-04-30T07:28:25;98888.03;;;21.97;50.24
72950;BME280;64868;45.710;9.590;2023-04-30T07:30:53;98828.78;;;22.04;48.83
72950;BME280;64868;45.710;9.590;2023-04-30T07:33:21;98829.22;;;22.16;48.63
72950;BME280;64868;45.710;9.590;2023-04-30T07:35:53;98875.88;;;23.16;47.11
72950;BME280;64868;45.710;9.590;2023-04-30T07:38:23;98862.75;;;23.10;46.61
72950;BME280;64868;45.710;9.590;2023-04-30T07:40:54;98864.03;;;23.29;46.77
72950;BME280;64868;45.710;9.590;2023-04-30T07:43:26;98847.66;;;23.41;45.92
72950;BME280;64868;45.710;9.590;2023-04-30T07:45:57;98875.50;;;23.62;46.58
72950;BME280;64868;45.710;9.590;2023-04-30T07:48:29;98852.84;;;22.71;47.87
72950;BME280;64868;45.710;9.590;2023-04-30T07:50:59;98890.47;;;21.77;50.06
72950;BME280;64868;45.710;9.590;2023-04-30T07:53:32;98872.25;;;22.12;49.05
72950;BME280;64868;45.710;9.590;2023-04-30T07:56:05;98836.38;;;22.70;47.46
72950;BME280;64868;45.710;9.590;2023-04-30T07:58:35;98878.56;;;23.89;45.27
72950;BME280;64868;45.710;9.590;2023-04-30T08:01:07;98862.38;;;23.56;45.40
72950;BME280;64868;45.710;9.590;2023-04-30T08:03:38;98850.69;;;24.10;43.33
72950;BME280;64868;45.710;9.590;2023-04-30T08:06:08;98865.97;;;24.49;42.07
72950;BME280;64868;45.710;9.590;2023-04-30T08:08:36;98868.38;;;26.48;39.10
72950;BME280;64868;45.710;9.590;2023-04-30T08:11:06;98886.78;;;27.40;36.16
72950;BME280;64868;45.710;9.590;2023-04-30T08:13:39;98841.69;;;27.55;35.52
72950;BME280;64868;45.710;9.590;2023-04-30T08:16:11;98902.81;;;28.90;33.10
72950;BME280;64868;45.710;9.590;2023-04-30T08:18:39;98863.63;;;31.44;29.75
72950;BME280;64868;45.710;9.590;2023-04-30T08:21:13;98918.22;;;34.71;24.34
72950;BME280;64868;45.710;9.590;2023-04-30T08:23:44;98919.91;;;34.67;24.27
72950;BME280;64868;45.710;9.590;2023-04-30T08:26:13;98914.91;;;32.66;26.55
72950;BME280;64868;45.710;9.590;2023-04-30T08:28:43;98865.78;;;33.99;24.52
72950;BME280;64868;45.710;9.590;2023-04-30T08:31:13;98903.72;;;35.52;22.62
72950;BME280;64868;45.710;9.590;2023-04-30T08:33:46;98890.84;;;36.07;21.70
72950;BME280;64868;45.710;9.590;2023-04-30T08:36:18;98919.56;;;37.78;19.95
72950;BME280;64868;45.710;9.590;2023-04-30T08:38:46;98900.75;;;37.77;19.73
72950;BME280;64868;45.710;9.590;2023-04-30T08:41:16;98884.50;;;35.74;21.61
72950;BME280;64868;45.710;9.590;2023-04-30T08:43:50;98916.72;;;34.31;23.94
72950;BME280;64868;45.710;9.590;2023-04-30T08:46:22;98883.03;;;28.84;31.09
72950;BME280;64868;45.710;9.590;2023-04-30T08:48:56;98894.19;;;26.23;36.33
72950;BME280;64868;45.710;9.590;2023-04-30T08:51:31;98862.81;;;26.01;37.74
72950;BME280;64868;45.710;9.590;2023-04-30T08:53:59;98870.69;;;24.48;40.56
72950;BME280;64868;45.710;9.590;2023-04-30T08:56:29;98883.03;;;24.39;41.38
72950;BME280;64868;45.710;9.590;2023-04-30T08:59:02;98889.13;;;24.21;42.10
72950;BME280;64868;45.710;9.590;2023-04-30T09:01:32;98867.50;;;23.52;42.56
72950;BME280;64868;45.710;9.590;2023-04-30T09:04:04;98849.09;;;24.01;42.66
72950;BME280;64868;45.710;9.590;2023-04-30T09:06:32;98857.59;;;24.49;41.25
72950;BME280;64868;45.710;9.590;2023-04-30T09:09:14;98901.75;;;24.45;42.09
72950;BME280;64868;45.710;9.590;2023-04-30T09:11:48;98858.84;;;24.81;39.25
72950;BME280;64868;45.710;9.590;2023-04-30T09:14:25;98896.41;;;24.85;41.21
72950;BME280;64868;45.710;9.590;2023-04-30T09:16:57;98891.56;;;25.00;39.55
72950;BME280;64868;45.710;9.590;2023-04-30T09:19:32;98904.94;;;24.14;40.86
72950;BME280;64868;45.710;9.590;2023-04-30T09:22:20;98885.66;;;25.23;38.57
72950;BME280;64868;45.710;9.590;2023-04-30T09:24:52;98877.91;;;23.65;42.37
72950;BME280;64868;45.710;9.590;2023-04-30T09:27:25;98889.09;;;24.78;40.41
72950;BME280;64868;45.710;9.590;2023-04-30T09:29:55;98890.22;;;23.99;42.08
72950;BME280;64868;45.710;9.590;2023-04-30T09:32:25;98854.13;;;24.82;39.45
72950;BME280;64868;45.710;9.590;2023-04-30T09:34:54;98880.94;;;25.24;39.10
72950;BME280;64868;45.710;9.590;2023-04-30T09:37:34;98887.88;;;25.68;38.65
72950;BME280;64868;45.710;9.590;2023-04-30T09:40:00;98893.97;;;25.85;37.37
72950;BME280;64868;45.710;9.590;2023-04-30T09:42:33;98823.06;;;24.91;38.54
72950;BME280;64868;45.710;9.590;2023-04-30T09:45:03;98886.00;;;24.38;39.88
72950;BME280;64868;45.710;9.590;2023-04-30T09:47:31;98876.25;;;25.31;38.67
72950;BME280;64868;45.710;9.590;2023-04-30T09:50:03;98882.38;;;26.08;36.60
72950;BME280;64868;45.710;9.590;2023-04-30T09:52:36;98837.59;;;25.28;36.86
72950;BME280;64868;45.710;9.590;2023-04-30T09:55:08;98832.28;;;24.16;39.27
72950;BME280;64868;45.710;9.590;2023-04-30T09:57:38;98836.34;;;24.83;37.83
72950;BME280;64868;45.710;9.590;2023-04-30T10:00:04;98883.56;;;25.39;37.85
72950;BME280;64868;45.710;9.590;2023-04-30T10:02:34;98841.91;;;23.85;39.90
72950;BME280;64868;45.710;9.590;2023-04-30T10:05:03;98888.34;;;23.63;41.09
72950;BME280;64868;45.710;9.590;2023-04-30T10:07:35;98889.13;;;24.49;40.37
72950;BME280;64868;45.710;9.590;2023-04-30T10:10:13;98868.63;;;24.36;38.91
72950;BME280;64868;45.710;9.590;2023-04-30T10:12:53;98876.09;;;24.00;39.74
72950;BME280;64868;45.710;9.590;2023-04-30T10:15:25;98860.63;;;24.95;38.44
72950;BME280;64868;45.710;9.590;2023-04-30T10:18:10;98866.56;;;23.24;41.41
72950;BME280;64868;45.710;9.590;2023-04-30T10:20:43;98873.25;;;23.51;41.53
72950;BME280;64868;45.710;9.590;2023-04-30T10:23:16;98862.25;;;23.64;40.38
72950;BME280;64868;45.710;9.590;2023-04-30T10:25:44;98872.09;;;24.10;40.10
72950;BME280;64868;45.710;9.590;2023-04-30T10:28:17;98864.69;;;24.23;39.59
72950;BME280;64868;45.710;9.590;2023-04-30T10:30:47;98837.34;;;24.68;38.36
72950;BME280;64868;45.710;9.590;2023-04-30T10:33:47;98854.97;;;25.23;36.94
72950;BME280;64868;45.710;9.590;2023-04-30T10:36:23;98854.03;;;23.99;40.46
72950;BME280;64868;45.710;9.590;2023-04-30T10:38:53;98850.47;;;24.12;39.73
72950;BME280;64868;45.710;9.590;2023-04-30T10:41:27;98848.06;;;25.13;37.70
72950;BME280;64868;45.710;9.590;2023-04-30T10:44:00;98845.78;;;24.40;39.51
72950;BME280;64868;45.710;9.590;2023-04-30T10:46:35;98823.69;;;24.87;37.74
72950;BME280;64868;45.710;9.590;2023-04-30T10:49:04;98817.00;;;24.74;38.55
72950;BME280;64868;45.710;9.590;2023-04-30T10:51:50;98819.94;;;24.25;39.45
72950;BME280;64868;45.710;9.590;2023-04-30T10:54:26;98803.66;;;24.63;39.18
72950;BME280;64868;45.710;9.590;2023-04-30T10:56:58;98837.81;;;25.40;37.71
72950;BME280;64868;45.710;9.590;2023-04-30T10:59:39;98837.00;;;25.66;37.76
72950;BME280;64868;45.710;9.590;2023-04-30T11:02:12;98841.50;;;24.44;39.24
72950;BME280;64868;45.710;9.590;2023-04-30T11:05:10;98837.78;;;24.09;39.87
72950;BME280;64868;45.710;9.590;2023-04-30T11:07:57;98832.56;;;24.56;38.58
72950;BME280;64868;45.710;9.590;2023-04-30T11:10:34;98835.91;;;24.86;37.94
72950;BME280;64868;45.710;9.590;2023-04-30T11:13:08;98816.81;;;24.07;39.23
72950;BME280;64868;45.710;9.590;2023-04-30T11:15:44;98818.16;;;24.17;38.76
72950;BME280;64868;45.710;9.590;2023-04-30T11:18:17;98814.38;;;23.69;40.68
72950;BME280;64868;45.710;9.590;2023-04-30T11:20:53;98822.38;;;23.57;40.57
72950;BME280;64868;45.710;9.590;2023-04-30T11:23:28;98819.97;;;23.33;41.75
72950;BME280;64868;45.710;9.590;2023-04-30T11:26:02;98815.13;;;22.83;42.51
72950;BME280;64868;45.710;9.590;2023-04-30T11:28:35;98825.75;;;22.58;42.94
72950;BME280;64868;45.710;9.590;2023-04-30T11:31:08;98824.38;;;22.10;44.32
72950;BME280;64868;45.710;9.590;2023-04-30T11:33:41;98814.06;;;22.33;44.25
72950;BME280;64868;45.710;9.590;2023-04-30T11:36:11;98819.47;;;21.82;44.68
72950;BME280;64868;45.710;9.590;2023-04-30T11:38:42;98820.91;;;21.78;45.36
72950;BME280;64868;45.710;9.590;2023-04-30T11:41:13;98826.72;;;21.69;45.36
72950;BME280;64868;45.710;9.590;2023-04-30T11:43:46;98825.22;;;21.96;44.88
72950;BME280;64868;45.710;9.590;2023-04-30T11:46:26;98819.47;;;21.82;45.50
72950;BME280;64868;45.710;9.590;2023-04-30T11:48:58;98815.94;;;21.51;47.08
72950;BME280;64868;45.710;9.590;2023-04-30T11:51:30;98816.75;;;21.36;46.47
72950;BME280;64868;45.710;9.590;2023-04-30T11:54:03;98820.72;;;21.42;47.16
72950;BME280;64868;45.710;9.590;2023-04-30T11:56:44;98812.44;;;21.11;47.77
72950;BME280;64868;45.710;9.590;2023-04-30T11:59:17;98821.41;;;21.13;47.13
72950;BME280;64868;45.710;9.590;2023-04-30T12:01:49;98799.72;;;21.17;47.95
72950;BME280;64868;45.710;9.590;2023-04-30T12:04:22;98771.03;;;20.86;47.39
72950;BME280;64868;45.710;9.590;2023-04-30T12:06:50;98804.47;;;20.85;46.73
72950;BME280;64868;45.710;9.590;2023-04-30T12:09:20;98797.06;;;20.38;47.56
72950;BME280;64868;45.710;9.590;2023-04-30T12:11:48;98783.59;;;20.74;46.63
72950;BME280;64868;45.710;9.590;2023-04-30T12:14:25;98811.44;;;21.04;46.25
72950;BME280;64868;45.710;9.590;2023-04-30T12:16:58;98797.28;;;20.99;46.48
72950;BME280;64868;45.710;9.590;2023-04-30T12:19:31;98802.84;;;20.99;46.77
72950;BME280;64868;45.710;9.590;2023-04-30T12:22:03;98783.72;;;21.04;46.25
72950;BME280;64868;45.710;9.590;2023-04-30T12:24:36;98789.91;;;21.37;45.55
72950;BME280;64868;45.710;9.590;2023-04-30T12:27:09;98777.94;;;21.36;45.76
72950;BME280;64868;45.710;9.590;2023-04-30T12:29:42;98803.66;;;21.68;45.64
72950;BME280;64868;45.710;9.590;2023-04-30T12:32:14;98771.94;;;21.33;45.82
72950;BME280;64868;45.710;9.590;2023-04-30T12:34:48;98802.84;;;21.45;45.56
72950;BME280;64868;45.710;9.590;2023-04-30T12:37:21;98768.31;;;21.24;44.50
72950;BME280;64868;45.710;9.590;2023-04-30T12:39:52;98755.25;;;21.71;44.00
72950;BME280;64868;45.710;9.590;2023-04-30T12:42:21;98784.78;;;22.16;43.53
72950;BME280;64868;45.710;9.590;2023-04-30T12:44:50;98773.34;;;22.11;43.85
72950;BME280;64868;45.710;9.590;2023-04-30T12:47:26;98782.44;;;21.75;44.41
72950;BME280;64868;45.710;9.590;2023-04-30T12:49:57;98778.34;;;22.16;43.77
72950;BME280;64868;45.710;9.590;2023-04-30T12:52:27;98767.91;;;22.03;44.38
72950;BME280;64868;45.710;9.590;2023-04-30T12:54:57;98771.78;;;21.64;44.79
72950;BME280;64868;45.710;9.590;2023-04-30T12:58:08;98790.41;;;21.41;45.17
72950;BME280;64868;45.710;9.590;2023-04-30T13:00:50;98757.78;;;21.20;45.05
72950;BME280;64868;45.710;9.590;2023-04-30T13:03:21;98789.66;;;21.61;45.51
72950;BME280;64868;45.710;9.590;2023-04-30T13:05:52;98775.19;;;21.51;44.70
72950;BME280;64868;45.710;9.590;2023-04-30T13:08:20;98774.91;;;21.46;45.86
72950;BME280;64868;45.710;9.590;2023-04-30T13:10:48;98761.19;;;21.68;45.08
72950;BME280;64868;45.710;9.590;2023-04-30T13:13:18;98769.44;;;21.38;44.90
72950;BME280;64868;45.710;9.590;2023-04-30T13:15:51;98762.59;;;21.03;46.67
72950;BME280;64868;45.710;9.590;2023-04-30T13:18:18;98746.75;;;21.11;45.97
72950;BME280;64868;45.710;9.590;2023-04-30T13:20:49;98752.47;;;21.10;46.09
72950;BME280;64868;45.710;9.590;2023-04-30T13:23:19;98757.34;;;21.31;44.65
72950;BME280;64868;45.710;9.590;2023-04-30T13:25:49;98759.19;;;21.16;44.68
72950;BME280;64868;45.710;9.590;2023-04-30T13:28:14;98741.50;;;21.40;43.31
72950;BME280;64868;45.710;9.590;2023-04-30T13:30:47;98770.59;;;21.44;42.84
72950;BME280;64868;45.710;9.590;2023-04-30T13:33:17;98742.94;;;21.12;43.89
72950;BME280;64868;45.710;9.590;2023-04-30T13:35:47;98750.69;;;21.17;45.14
72950;BME280;64868;45.710;9.590;2023-04-30T13:38:16;98730.44;;;20.71;45.54
72950;BME280;64868;45.710;9.590;2023-04-30T13:40:48;98752.13;;;20.90;45.00